Time;durP1;ratioP1;P1;durP2;ratioP2;P2;SDS_P1;SDS_P2;PMS_P1;PMS_P2;Temp;Humidity;BMP_temperature;BMP_pressure;BME280_temperature;BME280_humidity;BME280_pressure;Samples;Min_cycle;Max_cycle;Signal;HPM_P1;HPM_P2
2022/12/14 00:01:07;;;;;;;20.37;14.93;;;;;;;-4.77;100.00;95081.56;4894043;28;103872;-60
2022/12/14 00:03:34;;;;;;;19.73;13.43;;;;;;;-4.62;100.00;95079.69;4893489;28;101973;-60
2022/12/14 00:06:09;;;;;;;19.23;13.53;;;;;;;-4.47;100.00;95077.75;4913824;28;101788;-60
2022/12/14 00:08:36;;;;;;;19.53;13.13;;;;;;;-4.54;100.00;95051.00;4910959;28;101833;-60
2022/12/14 00:11:03;;;;;;;20.23;12.90;;;;;;;-4.41;100.00;95056.28;4893155;28;105215;-60
2022/12/14 00:13:31;;;;;;;20.87;14.17;;;;;;;-4.44;100.00;95050.66;4910109;28;103166;-60
2022/12/14 00:15:58;;;;;;;19.47;13.83;;;;;;;-4.31;100.00;95046.31;4910874;28;101825;-60
2022/12/14 00:18:25;;;;;;;19.27;13.10;;;;;;;-4.34;100.00;95046.72;4910509;28;102339;-60
2022/12/14 00:20:52;;;;;;;20.73;13.10;;;;;;;-4.12;100.00;95037.03;4910197;28;103079;-60
2022/12/14 00:23:18;;;;;;;19.33;13.47;;;;;;;-4.11;100.00;95018.69;4912303;28;102058;-60
2022/12/14 00:25:45;;;;;;;18.07;13.00;;;;;;;-4.22;100.00;95049.56;4914085;28;102956;-60
2022/12/14 00:28:12;;;;;;;16.83;12.67;;;;;;;-4.41;100.00;95045.91;4916891;28;102720;-60
2022/12/14 00:30:41;;;;;;;18.50;13.37;;;;;;;-4.56;100.00;95034.03;4913911;28;102521;-60
2022/12/14 00:33:08;;;;;;;19.13;14.00;;;;;;;-4.33;100.00;95022.38;4913386;28;102609;-60
2022/12/14 00:35:35;;;;;;;17.33;13.03;;;;;;;-4.39;100.00;95022.34;4897119;28;101801;-60
2022/12/14 00:38:02;;;;;;;18.67;13.10;;;;;;;-4.45;100.00;95026.53;4913783;28;102614;-60
2022/12/14 00:40:29;;;;;;;18.77;13.67;;;;;;;-4.49;100.00;95011.50;4896068;28;105527;-60
2022/12/14 00:42:56;;;;;;;20.17;12.93;;;;;;;-4.52;100.00;94996.34;4895842;28;101884;-60
2022/12/14 00:45:23;;;;;;;19.43;13.57;;;;;;;-4.52;100.00;95002.34;4896316;28;105528;-60
2022/12/14 00:47:52;;;;;;;19.30;13.80;;;;;;;-4.75;100.00;95006.97;4913220;28;102534;-60
2022/12/14 00:50:19;;;;;;;22.40;16.33;;;;;;;-4.99;100.00;95004.84;4916832;28;102138;-60
2022/12/14 00:52:46;;;;;;;27.57;17.60;;;;;;;-4.94;100.00;95005.09;4895482;28;105307;-60
2022/12/14 00:55:13;;;;;;;28.83;17.87;;;;;;;-4.86;100.00;94996.38;4896041;28;102105;-60
2022/12/14 00:57:40;;;;;;;27.30;17.97;;;;;;;-4.88;100.00;94993.97;4895968;28;105377;-60
2022/12/14 01:00:08;;;;;;;24.63;16.57;;;;;;;-4.81;100.00;95014.75;4895321;28;103807;-60
2022/12/14 01:02:35;;;;;;;27.10;18.03;;;;;;;-4.77;100.00;95021.94;4895148;28;101990;-60
2022/12/14 01:05:03;;;;;;;27.13;17.43;;;;;;;-4.79;100.00;95025.72;4895535;28;105434;-59
2022/12/14 01:07:30;;;;;;;28.43;18.17;;;;;;;-4.78;100.00;95033.31;4895455;28;105815;-60
2022/12/14 01:09:57;;;;;;;28.10;17.77;;;;;;;-4.90;100.00;95037.41;4896142;28;102085;-60
2022/12/14 01:12:24;;;;;;;24.53;16.93;;;;;;;-4.86;100.00;95036.03;4898872;28;105413;-60
2022/12/14 01:14:51;;;;;;;26.77;17.23;;;;;;;-4.86;100.00;95030.84;4913024;28;101832;-60
2022/12/14 01:17:17;;;;;;;24.83;16.67;;;;;;;-4.82;100.00;95023.50;4913097;28;102656;-60
2022/12/14 01:19:44;;;;;;;25.87;17.30;;;;;;;-4.94;100.00;95028.41;4895285;28;105782;-60
2022/12/14 01:22:13;;;;;;;25.90;16.73;;;;;;;-5.14;100.00;95035.22;4895710;28;101951;-59
2022/12/14 01:24:39;;;;;;;25.60;17.63;;;;;;;-5.13;100.00;95039.41;4895571;28;104886;-60
2022/12/14 01:27:06;;;;;;;25.13;16.73;;;;;;;-5.07;100.00;95048.25;4895445;28;105158;-60
2022/12/14 01:29:33;;;;;;;22.57;15.93;;;;;;;-5.03;100.00;95039.91;4913833;28;101864;-60
2022/12/14 01:32:00;;;;;;;23.53;15.97;;;;;;;-5.04;100.00;95034.91;4912522;28;105143;-60
2022/12/14 01:34:27;;;;;;;22.10;14.87;;;;;;;-4.90;100.00;95032.22;4897063;28;101840;-60
2022/12/14 01:36:53;;;;;;;25.07;16.23;;;;;;;-4.83;100.00;95021.88;4912920;28;102393;-60
2022/12/14 01:39:22;;;;;;;25.43;15.77;;;;;;;-4.71;100.00;95020.38;4912579;28;102199;-60
2022/12/14 01:41:51;;;;;;;21.73;15.80;;;;;;;-4.66;100.00;95031.78;4913047;28;102174;-60
2022/12/14 01:45:00;;;;;;;21.63;15.03;;;;;;;-4.69;100.00;95026.97;4912593;28;102778;-60
2022/12/14 01:47:49;;;;;;;19.17;14.43;;;;;;;-4.73;100.00;95024.94;4875698;28;105994;-60
2022/12/14 01:50:24;;;;;;;19.20;14.20;;;;;;;-4.57;100.00;95035.84;4913156;28;101771;-60
2022/12/14 01:52:54;;;;;;;19.03;13.73;;;;;;;-4.61;100.00;95033.78;4912602;28;102608;-60
2022/12/14 01:55:25;;;;;;;20.00;14.20;;;;;;;-4.67;100.00;95035.38;4915165;28;101751;-60
2022/12/14 01:57:59;;;;;;;18.83;13.37;;;;;;;-4.55;100.00;95028.66;4912778;28;101787;-60
2022/12/14 02:00:25;;;;;;;20.87;13.77;;;;;;;-4.46;100.00;95022.31;4912810;28;102538;-60
2022/12/14 02:02:58;;;;;;;19.67;14.00;;;;;;;-4.46;100.00;95021.50;4894967;28;101983;-60
2022/12/14 02:05:26;;;;;;;18.77;13.47;;;;;;;-4.34;100.00;95012.19;4912840;28;102836;-60
2022/12/14 02:07:55;;;;;;;19.53;13.47;;;;;;;-4.29;100.00;95017.59;4894253;28;105425;-60
2022/12/14 02:10:26;;;;;;;19.77;13.47;;;;;;;-4.23;100.00;95019.41;4912447;28;101710;-60
2022/12/14 02:13:00;;;;;;;20.97;14.07;;;;;;;-4.08;100.00;95020.91;4894943;28;103984;-60
2022/12/14 02:15:28;;;;;;;22.27;15.33;;;;;;;-4.04;100.00;95014.31;4894048;28;105544;-60
2022/12/14 02:17:56;;;;;;;21.40;15.97;;;;;;;-4.14;100.00;95005.28;4898378;28;102145;-60
2022/12/14 02:20:29;;;;;;;20.93;14.57;;;;;;;-4.15;100.00;95009.69;4894268;28;103678;-60
2022/12/14 02:23:27;;;;;;;18.97;14.67;;;;;;;-4.23;100.00;95007.25;4894224;28;101810;-60
2022/12/14 02:26:22;;;;;;;19.87;14.23;;;;;;;-4.13;100.00;95023.28;4894519;28;105783;-60
2022/12/14 02:29:11;;;;;;;20.53;14.80;;;;;;;-4.24;100.00;95016.03;4894072;28;105667;-60
2022/12/14 02:31:47;;;;;;;16.27;13.37;;;;;;;-4.14;100.00;95013.88;4895016;28;101868;-60
2022/12/14 02:34:26;;;;;;;20.07;14.33;;;;;;;-4.11;100.00;95023.88;4894657;28;105417;-60
2022/12/14 02:36:59;;;;;;;20.77;14.27;;;;;;;-4.33;100.00;95024.16;4894030;28;104736;-60
2022/12/14 02:39:40;;;;;;;17.23;13.47;;;;;;;-4.61;100.00;95028.59;4894469;28;102059;-60
2022/12/14 02:42:11;;;;;;;21.30;14.07;;;;;;;-4.43;100.00;95036.72;4897228;28;104837;-60
2022/12/14 02:44:52;;;;;;;18.77;14.13;;;;;;;-4.30;100.00;95026.38;4894632;28;101883;-60
2022/12/14 02:47:26;;;;;;;19.40;14.50;;;;;;;-4.27;100.00;95031.19;4910801;28;102289;-60
2022/12/14 02:50:03;;;;;;;21.37;14.90;;;;;;;-4.27;100.00;95026.78;4894050;28;105529;-60
2022/12/14 02:52:39;;;;;;;22.83;14.97;;;;;;;-4.35;100.00;95029.56;4911788;28;102129;-60
2022/12/14 02:55:14;;;;;;;20.30;14.93;;;;;;;-4.24;100.00;95015.22;4894340;28;105774;-60
2022/12/14 02:57:47;;;;;;;19.03;13.77;;;;;;;-4.26;100.00;95018.00;4893830;28;105481;-60
2022/12/14 03:00:16;;;;;;;20.83;14.57;;;;;;;-4.30;100.00;95009.03;4911866;28;102358;-60
2022/12/14 03:02:45;;;;;;;21.63;14.17;;;;;;;-4.24;100.00;95000.47;4911569;28;102610;-60
2022/12/14 03:05:12;;;;;;;22.20;14.67;;;;;;;-4.28;100.00;94983.69;4897152;28;105477;-60
2022/12/14 03:07:43;;;;;;;22.50;15.50;;;;;;;-4.45;100.00;94972.03;4894408;28;105613;-60
2022/12/14 03:10:19;;;;;;;21.83;15.83;;;;;;;-4.52;100.00;94991.97;4911225;28;102745;-60
2022/12/14 03:12:51;;;;;;;21.40;14.77;;;;;;;-4.45;100.00;94994.56;4911768;28;101755;-60
2022/12/14 03:15:24;;;;;;;20.33;14.50;;;;;;;-4.45;100.00;95000.56;4896752;28;106002;-60
2022/12/14 03:17:56;;;;;;;19.80;15.03;;;;;;;-4.56;100.00;95001.13;4896161;28;105593;-60
2022/12/14 03:20:26;;;;;;;20.33;15.07;;;;;;;-4.72;100.00;94985.88;4913222;28;102305;-60
2022/12/14 03:22:59;;;;;;;21.53;14.93;;;;;;;-4.76;100.00;94974.28;4913855;28;102867;-60
2022/12/14 03:25:33;;;;;;;19.90;14.23;;;;;;;-4.56;100.00;94975.19;4896530;28;104799;-60
2022/12/14 03:28:06;;;;;;;21.17;14.53;;;;;;;-4.48;100.00;94976.81;4899470;28;101998;-60
2022/12/14 03:30:39;;;;;;;19.90;15.13;;;;;;;-4.36;100.00;94990.84;4895873;28;105337;-60
2022/12/14 03:33:12;;;;;;;21.40;15.43;;;;;;;-4.31;100.00;94983.28;4913503;28;101761;-60
2022/12/14 03:35:45;;;;;;;23.33;15.37;;;;;;;-4.31;100.00;94963.31;4914359;28;102849;-60
2022/12/14 03:38:18;;;;;;;22.37;16.07;;;;;;;-4.36;100.00;94957.91;4911323;28;103261;-60
2022/12/14 03:40:53;;;;;;;21.03;14.37;;;;;;;-4.25;100.00;94952.16;4912719;28;102227;-60
2022/12/14 03:43:31;;;;;;;34.57;16.37;;;;;;;-4.43;100.00;94938.13;4913609;28;102420;-60
2022/12/14 03:46:09;;;;;;;21.30;15.47;;;;;;;-4.31;100.00;94937.38;4911581;28;102651;-60
2022/12/14 03:48:41;;;;;;;21.83;15.70;;;;;;;-4.15;100.00;94936.22;4896933;28;101819;-60
2022/12/14 03:51:14;;;;;;;23.77;15.53;;;;;;;-4.26;100.00;94929.00;4910732;28;102673;-60
2022/12/14 03:53:51;;;;;;;22.73;15.87;;;;;;;-4.25;100.00;94928.00;4912716;28;101766;-60
2022/12/14 03:56:24;;;;;;;21.27;14.87;;;;;;;-4.25;100.00;94930.59;4912167;28;102402;-60
2022/12/14 03:59:02;;;;;;;21.90;14.87;;;;;;;-4.62;100.00;94939.66;4894241;28;105547;-60
2022/12/14 04:01:42;;;;;;;22.73;16.10;;;;;;;-4.45;100.00;94933.13;4896043;28;102129;-60
2022/12/14 04:04:13;;;;;;;23.57;15.30;;;;;;;-4.45;100.00;94935.72;4895824;28;104507;-60
2022/12/14 04:06:46;;;;;;;22.50;15.67;;;;;;;-4.30;100.00;94927.78;4894011;28;105887;-60
2022/12/14 04:09:25;;;;;;;22.60;16.27;;;;;;;-4.21;100.00;94927.41;4893915;28;101878;-60
2022/12/14 04:20:42;;;;;;;25.77;16.80;;;;;;;-4.00;100.00;94913.47;4910975;28;101958;-60
2022/12/14 04:23:13;;;;;;;21.37;15.67;;;;;;;-3.78;100.00;94913.13;4894011;28;101967;-60
2022/12/14 04:26:04;;;;;;;21.80;15.47;;;;;;;-3.95;100.00;94911.09;4911519;28;102378;-60
2022/12/14 04:31:25;;;;;;;20.83;16.27;;;;;;;-4.19;100.00;94915.06;4911945;28;101713;-60
2022/12/14 04:34:01;;;;;;;24.30;16.00;;;;;;;-4.21;100.00;94911.84;4895461;28;105740;-60
2022/12/14 04:36:32;;;;;;;24.23;17.50;;;;;;;-4.34;100.00;94909.22;4898253;28;105871;-60
2022/12/14 04:39:02;;;;;;;21.07;15.17;;;;;;;-4.39;100.00;94906.41;4910645;28;102653;-60
2022/12/14 04:41:33;;;;;;;21.63;15.93;;;;;;;-4.35;100.00;94915.41;4911092;28;102816;-60
2022/12/14 04:44:05;;;;;;;23.37;16.67;;;;;;;-4.28;100.00;94912.81;4911736;28;102058;-60
2022/12/14 04:46:37;;;;;;;26.27;17.10;;;;;;;-4.27;100.00;94907.44;4895379;28;104391;-60
2022/12/14 04:49:17;;;;;;;25.10;17.23;;;;;;;-4.12;100.00;94910.69;4894881;28;105866;-60
2022/12/14 04:51:49;;;;;;;23.50;16.33;;;;;;;-4.19;100.00;94915.06;4910766;28;101702;-60
2022/12/14 04:54:23;;;;;;;24.47;16.90;;;;;;;-4.28;100.00;94911.03;4910914;28;102890;-60
2022/12/14 04:56:55;;;;;;;23.60;17.47;;;;;;;-4.37;100.00;94917.38;4911374;28;103062;-59
2022/12/14 04:59:24;;;;;;;25.53;16.80;;;;;;;-4.30;100.00;94915.63;4896915;28;102104;-59
2022/12/14 05:02:03;;;;;;;26.93;17.20;;;;;;;-4.12;100.00;94908.09;4911141;28;102701;-60
2022/12/14 05:04:53;;;;;;;26.53;17.60;;;;;;;-3.96;100.00;94910.31;4895079;28;102919;-60
2022/12/14 05:07:31;;;;;;;25.60;17.27;;;;;;;-3.77;100.00;94909.53;4893767;28;101862;-60
2022/12/14 05:10:03;;;;;;;23.40;16.47;;;;;;;-3.62;100.00;94917.94;4912838;28;101701;-60
2022/12/14 05:12:36;;;;;;;23.30;16.70;;;;;;;-3.82;100.00;94917.09;4914783;28;101786;-60
2022/12/14 05:15:08;;;;;;;24.03;17.30;;;;;;;-3.75;100.00;94894.56;4915626;28;102916;-60
2022/12/14 05:17:36;;;;;;;23.53;17.27;;;;;;;-3.70;100.00;94902.56;4898243;28;104868;-60
2022/12/14 05:20:05;;;;;;;25.83;17.87;;;;;;;-3.72;100.00;94904.53;4897589;28;101758;-60
2022/12/14 05:22:33;;;;;;;21.50;16.87;;;;;;;-3.56;100.00;94895.56;4916228;28;105078;-60
2022/12/14 05:25:00;;;;;;;28.97;19.13;;;;;;;-3.59;100.00;94899.34;4913931;28;101807;-60
2022/12/14 05:27:26;;;;;;;27.37;18.83;;;;;;;-3.60;100.00;94896.94;4896823;28;105247;-60
2022/12/14 05:29:53;;;;;;;27.97;18.57;;;;;;;-3.47;100.00;94896.94;4912776;28;102664;-60
2022/12/14 05:32:20;;;;;;;27.03;17.47;;;;;;;-3.48;100.00;94893.56;4895562;28;102219;-60
2022/12/14 05:34:47;;;;;;;29.20;19.33;;;;;;;-3.37;100.00;94889.53;4895788;28;105607;-60
2022/12/14 05:37:16;;;;;;;24.73;18.77;;;;;;;-3.47;100.00;94879.56;4894921;28;105294;-60
2022/12/14 05:39:43;;;;;;;25.50;17.63;;;;;;;-3.46;100.00;94878.56;4895467;28;102017;-60
2022/12/14 05:42:10;;;;;;;27.13;18.33;;;;;;;-3.31;100.00;94876.56;4896422;28;105815;-60
2022/12/14 05:44:37;;;;;;;27.00;18.40;;;;;;;-3.39;100.00;94870.78;4899626;28;105336;-60
2022/12/14 05:47:04;;;;;;;27.63;18.23;;;;;;;-3.48;100.00;94870.19;4912955;28;102385;-60
2022/12/14 05:49:31;;;;;;;25.50;17.07;;;;;;;-3.31;100.00;94873.94;4912363;28;103221;-60
2022/12/14 05:51:57;;;;;;;24.47;17.63;;;;;;;-3.53;100.00;94867.38;4895682;28;101876;-60
2022/12/14 05:54:26;;;;;;;27.17;18.30;;;;;;;-3.41;100.00;94870.97;4913822;28;102826;-60
2022/12/14 05:56:53;;;;;;;23.53;16.57;;;;;;;-3.47;100.00;94871.78;4895024;28;105632;-60
2022/12/14 05:59:19;;;;;;;24.83;18.23;;;;;;;-3.57;100.00;94873.97;4913061;28;102662;-60
2022/12/14 06:01:48;;;;;;;27.47;17.87;;;;;;;-3.55;100.00;94853.78;4912529;28;102366;-60
2022/12/14 06:04:17;;;;;;;24.37;16.63;;;;;;;-3.35;100.00;94853.75;4898497;28;105595;-60
2022/12/14 06:06:44;;;;;;;23.87;16.93;;;;;;;-3.46;100.00;94849.16;4912735;28;102360;-60
2022/12/14 06:09:14;;;;;;;27.23;17.87;;;;;;;-3.53;100.00;94843.19;4912180;28;102610;-60
2022/12/14 06:11:43;;;;;;;24.33;17.03;;;;;;;-3.44;100.00;94847.19;4895302;28;101868;-60
2022/12/14 06:14:11;;;;;;;24.50;17.07;;;;;;;-3.44;100.00;94836.78;4896158;28;105463;-60
2022/12/14 06:16:40;;;;;;;27.13;17.93;;;;;;;-3.39;100.00;94835.16;4894769;28;105651;-60
2022/12/14 06:19:07;;;;;;;24.53;17.63;;;;;;;-3.25;100.00;94841.94;4895422;28;101870;-60
2022/12/14 06:21:37;;;;;;;25.60;17.30;;;;;;;-3.35;100.00;94840.75;4894767;28;103577;-60
2022/12/14 06:24:05;;;;;;;25.17;17.23;;;;;;;-3.32;100.00;94830.78;4894125;28;105451;-60
2022/12/14 06:26:33;;;;;;;23.17;17.13;;;;;;;-3.43;100.00;94833.19;4898313;28;102076;-60
2022/12/14 06:29:01;;;;;;;26.50;18.53;;;;;;;-3.35;100.00;94838.97;4912008;28;103361;-60
2022/12/14 06:31:30;;;;;;;25.63;18.03;;;;;;;-3.25;100.00;94836.75;4912189;28;102130;-60
2022/12/14 06:33:59;;;;;;;25.83;17.13;;;;;;;-3.16;100.00;94845.91;4911936;28;102351;-60
2022/12/14 06:36:27;;;;;;;25.47;17.83;;;;;;;-3.26;100.00;94839.56;4911508;28;102814;-60
2022/12/14 06:38:55;;;;;;;28.10;18.37;;;;;;;-3.41;100.00;94837.19;4912225;28;101840;-60
2022/12/14 06:41:23;;;;;;;25.73;17.40;;;;;;;-3.47;100.00;94839.78;4911993;28;102367;-60
2022/12/14 06:43:52;;;;;;;27.20;18.10;;;;;;;-3.49;100.00;94832.19;4911513;28;103155;-60
2022/12/14 06:46:22;;;;;;;25.27;18.07;;;;;;;-3.30;100.00;94826.16;4912061;28;101823;-60
2022/12/14 06:48:50;;;;;;;27.40;19.03;;;;;;;-3.21;100.00;94824.16;4897259;28;105570;-60
2022/12/14 06:51:17;;;;;;;27.70;19.00;;;;;;;-3.11;100.00;94822.69;4911333;28;103247;-60
2022/12/14 06:53:44;;;;;;;28.20;19.77;;;;;;;-3.19;100.00;94835.13;4894343;28;103627;-60
2022/12/14 06:56:13;;;;;;;30.13;19.37;;;;;;;-3.20;100.00;94833.53;4893700;28;105659;-60
2022/12/14 06:58:40;;;;;;;29.50;20.00;;;;;;;-3.11;100.00;94833.09;4894281;28;101959;-60
2022/12/14 07:01:08;;;;;;;26.03;19.03;;;;;;;-3.19;100.00;94827.34;4894611;28;105600;-60
2022/12/14 07:03:37;;;;;;;26.07;18.00;;;;;;;-3.08;100.00;94822.31;4893799;28;105598;-60
2022/12/14 07:06:05;;;;;;;26.47;18.87;;;;;;;-3.00;100.00;94818.69;4911583;28;102328;-60
2022/12/14 07:08:34;;;;;;;25.93;18.70;;;;;;;-3.02;100.00;94816.28;4894180;28;105473;-60
2022/12/14 07:11:02;;;;;;;28.40;18.27;;;;;;;-2.95;100.00;94822.25;4914630;28;102542;-60
2022/12/14 07:13:29;;;;;;;27.53;19.67;;;;;;;-2.79;100.00;94816.59;4911237;28;102908;-60
2022/12/14 07:15:58;;;;;;;29.53;20.20;;;;;;;-2.99;100.00;94810.69;4893493;28;105300;-60
2022/12/14 07:18:26;;;;;;;27.73;18.60;;;;;;;-2.79;100.00;94811.38;4911395;28;101954;-60
2022/12/14 07:21:00;;;;;;;29.10;18.60;;;;;;;-2.78;100.00;94801.78;4893931;28;104958;-60
2022/12/14 07:23:30;;;;;;;28.00;18.67;;;;;;;-2.66;100.00;94806.13;4910735;28;103153;-60
2022/12/14 07:26:01;;;;;;;28.47;19.30;;;;;;;-2.59;100.00;94800.88;4894051;28;101855;-60
2022/12/14 07:28:28;;;;;;;30.77;19.37;;;;;;;-2.55;100.00;94808.09;4894107;28;105671;-60
2022/12/14 07:30:56;;;;;;;30.50;19.67;;;;;;;-2.69;100.00;94796.13;4893375;28;105473;-60
2022/12/14 07:33:23;;;;;;;24.87;18.43;;;;;;;-2.60;100.00;94792.31;4912721;28;101877;-60
2022/12/14 07:35:50;;;;;;;30.43;19.50;;;;;;;-2.79;100.00;94785.38;4893040;28;105782;-60
2022/12/14 07:38:19;;;;;;;29.20;19.40;;;;;;;-2.61;100.00;94793.31;4911114;28;101886;-60
2022/12/14 07:40:46;;;;;;;31.70;20.60;;;;;;;-2.67;100.00;94783.72;4893513;28;105283;-60
2022/12/14 07:43:13;;;;;;;29.37;20.13;;;;;;;-2.65;100.00;94784.31;4910841;28;102784;-60
2022/12/14 07:45:40;;;;;;;30.80;20.70;;;;;;;-2.71;100.00;94792.97;4893534;28;102493;-60
2022/12/14 07:48:07;;;;;;;27.80;19.37;;;;;;;-2.71;100.00;94785.16;4877439;28;104804;-60
2022/12/14 07:50:34;;;;;;;29.20;19.03;;;;;;;-2.70;100.00;94773.75;4910274;28;102867;-60
2022/12/14 07:53:01;;;;;;;26.90;19.30;;;;;;;-2.74;100.00;94775.16;4893519;28;102048;-60
2022/12/14 07:55:29;;;;;;;27.83;18.93;;;;;;;-2.65;100.00;94766.09;4896055;28;105734;-60
2022/12/14 07:57:56;;;;;;;25.50;18.77;;;;;;;-2.65;100.00;94766.09;4893618;28;101885;-60
2022/12/14 08:00:23;;;;;;;26.70;18.47;;;;;;;-2.44;100.00;94762.38;4893506;28;103819;-60
2022/12/14 08:02:50;;;;;;;26.63;18.57;;;;;;;-2.46;100.00;94749.56;4910034;28;102820;-60
2022/12/14 08:05:17;;;;;;;34.57;22.17;;;;;;;-2.39;100.00;94742.53;4893625;28;101963;-60
2022/12/14 08:07:44;;;;;;;29.07;19.97;;;;;;;-2.35;100.00;94756.69;4893323;28;105641;-60
2022/12/14 08:10:11;;;;;;;28.57;20.13;;;;;;;-2.46;100.00;94748.78;4892586;28;105837;-60
2022/12/14 08:12:39;;;;;;;33.07;21.07;;;;;;;-2.38;100.00;94736.31;4893309;28;102104;-60
2022/12/14 08:15:08;;;;;;;28.33;18.57;;;;;;;-2.43;100.00;94746.56;4896206;28;105129;-56
2022/12/14 08:17:35;;;;;;;26.93;19.13;;;;;;;-2.28;100.00;94735.84;4859835;28;102292;-60
2022/12/14 08:20:02;;;;;;;29.47;19.53;;;;;;;-2.20;100.00;94736.38;4872409;28;104408;-59
2022/12/14 08:22:30;;;;;;;27.73;19.43;;;;;;;-2.12;100.00;94736.13;4871967;28;102582;-60
2022/12/14 08:24:57;;;;;;;28.37;20.30;;;;;;;-1.89;100.00;94730.28;4874118;28;101863;-60
2022/12/14 08:27:24;;;;;;;25.83;19.10;;;;;;;-2.06;100.00;94724.03;4874086;28;105114;-60
2022/12/14 08:29:53;;;;;;;28.47;19.33;;;;;;;-2.05;100.00;94723.84;4873290;28;105680;-60
2022/12/14 08:32:20;;;;;;;28.07;19.93;;;;;;;-1.90;100.00;94726.91;4874099;28;102101;-60
2022/12/14 08:34:56;;;;;;;28.53;19.37;;;;;;;-1.96;100.00;94721.75;4890082;28;105697;-56
2022/12/14 08:37:23;;;;;;;30.60;19.17;;;;;;;-1.90;100.00;94719.09;4892839;28;106001;-60
2022/12/14 08:39:51;;;;;;;31.97;22.27;;;;;;;-1.83;100.00;94706.00;4889822;28;105179;-60
2022/12/14 08:42:21;;;;;;;35.70;23.43;;;;;;;-1.65;100.00;94699.00;4889469;28;105573;-59
2022/12/14 08:44:53;;;;;;;26.67;18.60;;;;;;;-1.56;100.00;94702.91;4892083;28;101901;-60
2022/12/14 08:47:20;;;;;;;25.77;19.67;;;;;;;-1.38;100.00;94704.72;4893351;28;105621;-61
2022/12/14 08:49:46;;;;;;;27.97;18.90;;;;;;;-1.15;100.00;94702.25;4892584;28;105626;-61
2022/12/14 08:52:13;;;;;;;24.80;18.57;;;;;;;-1.32;100.00;94691.59;4892350;28;102161;-61
2022/12/14 08:54:40;;;;;;;25.70;18.13;;;;;;;-1.29;100.00;94685.16;4892618;28;104856;-61
2022/12/14 08:57:07;;;;;;;25.87;18.27;;;;;;;-1.43;100.00;94694.94;4893521;28;102564;-61
2022/12/14 08:59:34;;;;;;;25.27;17.13;;;;;;;-1.42;100.00;94701.75;4895642;28;102241;-61
2022/12/14 09:02:02;;;;;;;27.70;20.97;;;;;;;-1.33;100.00;94702.25;4892767;28;102506;-61
2022/12/14 09:04:30;;;;;;;25.23;18.47;;;;;;;-1.35;100.00;94686.03;4892280;28;101957;-61
2022/12/14 09:06:57;;;;;;;26.30;18.20;;;;;;;-1.31;100.00;94687.97;4892026;28;105667;-61
2022/12/14 09:09:24;;;;;;;25.00;17.87;;;;;;;-1.30;100.00;94688.78;4891792;28;105810;-61
2022/12/14 09:11:51;;;;;;;24.40;17.77;;;;;;;-1.26;100.00;94676.91;4892296;28;102037;-60
2022/12/14 09:14:18;;;;;;;25.87;18.50;;;;;;;-1.42;100.00;94686.09;4892427;28;104947;-60
2022/12/14 09:16:45;;;;;;;35.23;20.17;;;;;;;-1.43;100.00;94694.16;4891832;28;105963;-61
2022/12/14 09:19:13;;;;;;;26.23;18.57;;;;;;;-1.26;100.00;94689.94;4892293;28;102040;-60
2022/12/14 09:21:40;;;;;;;28.93;18.70;;;;;;;-1.28;100.00;94682.34;4894706;28;105564;-60
2022/12/14 09:24:09;;;;;;;23.17;17.97;;;;;;;-1.33;100.00;94687.41;4892091;28;101992;-61
2022/12/14 09:26:36;;;;;;;24.50;17.07;;;;;;;-1.32;100.00;94690.81;4892215;28;105392;-61
2022/12/14 09:29:03;;;;;;;27.10;18.13;;;;;;;-1.22;100.00;94684.06;4891482;28;105947;-60
2022/12/14 09:31:30;;;;;;;24.40;17.77;;;;;;;-1.19;100.00;94672.41;4892023;28;101833;-61
2022/12/14 09:33:58;;;;;;;25.47;16.63;;;;;;;-1.09;100.00;94652.59;4909299;28;102612;-61
2022/12/14 09:36:28;;;;;;;26.77;17.77;;;;;;;-0.94;100.00;94657.44;4894916;28;104324;-61
2022/12/14 09:38:56;;;;;;;24.30;17.30;;;;;;;-0.91;100.00;94657.78;4895106;28;101899;-61
2022/12/14 09:41:51;;;;;;;23.53;17.43;;;;;;;-0.62;100.00;94636.06;4895180;28;103838;-61
2022/12/14 09:44:30;;;;;;;23.57;17.47;;;;;;;-0.27;100.00;94637.69;4897619;28;105380;-60
2022/12/14 09:47:05;;;;;;;23.80;17.27;;;;;;;-0.46;100.00;94630.19;4894559;28;104379;-61
2022/12/14 09:49:41;;;;;;;25.00;18.17;;;;;;;-0.30;100.00;94634.75;4894536;28;105234;-60
2022/12/14 09:52:15;;;;;;;23.80;17.47;;;;;;;-0.45;100.00;94629.16;4893972;28;102077;-61
2022/12/14 09:54:46;;;;;;;25.90;18.13;;;;;;;-0.09;100.00;94628.97;4913425;28;102623;-58
2022/12/14 09:57:21;;;;;;;23.27;17.40;;;;;;;0.02;100.00;94623.72;4894348;28;105289;-61
2022/12/14 09:59:49;;;;;;;25.13;17.30;;;;;;;0.02;100.00;94625.56;4913466;28;101685;-60
2022/12/14 10:02:27;;;;;;;21.60;15.83;;;;;;;-0.45;100.00;94626.56;4895689;28;105762;-62
2022/12/14 10:05:05;;;;;;;22.83;16.63;;;;;;;-0.08;100.00;94607.84;4912256;28;102116;-61
2022/12/14 10:07:40;;;;;;;23.07;16.40;;;;;;;-0.13;100.00;94593.88;4898472;28;101819;-61
2022/12/14 10:10:18;;;;;;;23.53;17.17;;;;;;;0.08;100.00;94591.50;4912185;28;103141;-61
2022/12/14 10:12:57;;;;;;;24.13;17.23;;;;;;;0.15;100.00;94573.06;4912542;28;101881;-61
2022/12/14 10:15:29;;;;;;;22.80;16.37;;;;;;;0.08;100.00;94575.00;4895443;28;105405;-61
2022/12/14 10:18:15;;;;;;;21.83;16.00;;;;;;;-0.02;100.00;94574.78;4911867;28;102601;-61
2022/12/14 10:20:50;;;;;;;27.10;17.90;;;;;;;0.06;100.00;94566.63;4912935;28;101694;-61
2022/12/14 10:23:23;;;;;;;25.63;17.17;;;;;;;0.25;100.00;94565.41;4912678;28;102314;-61
2022/12/14 10:25:54;;;;;;;20.67;15.50;;;;;;;0.22;100.00;94563.28;4912080;28;102893;-61
2022/12/14 10:28:37;;;;;;;22.33;16.63;;;;;;;0.46;100.00;94549.91;4915836;28;101701;-61
2022/12/14 10:31:09;;;;;;;26.33;18.97;;;;;;;0.68;100.00;94545.63;4912157;28;103051;-61
2022/12/14 10:33:41;;;;;;;20.07;15.43;;;;;;;0.90;100.00;94553.59;4911903;28;102024;-61
2022/12/14 10:36:18;;;;;;;23.60;15.97;;;;;;;0.60;100.00;94547.81;4895056;28;105788;-61
2022/12/14 10:38:58;;;;;;;20.37;15.93;;;;;;;0.74;100.00;94541.25;4911833;28;102777;-61
2022/12/14 10:41:35;;;;;;;23.70;16.13;;;;;;;0.47;100.00;94537.63;4911886;28;101696;-61
2022/12/14 10:44:16;;;;;;;17.97;14.23;;;;;;;0.55;100.00;94530.19;4894821;28;105449;-61
2022/12/14 10:46:51;;;;;;;21.13;15.63;;;;;;;0.59;100.00;94526.09;4911344;28;102604;-61
2022/12/14 10:49:24;;;;;;;21.30;15.47;;;;;;;0.57;100.00;94522.94;4912056;28;101817;-61
2022/12/14 10:51:57;;;;;;;22.87;15.37;;;;;;;0.55;100.00;94514.50;4897387;28;105364;-61
2022/12/14 10:54:31;;;;;;;21.60;16.20;;;;;;;0.73;100.00;94501.22;4912287;28;102294;-61
2022/12/14 10:56:58;;;;;;;20.77;15.43;;;;;;;0.82;100.00;94512.13;4911810;28;102313;-61
2022/12/14 10:59:34;;;;;;;19.50;14.93;;;;;;;0.19;100.00;94520.13;4911357;28;103176;-61
2022/12/14 11:02:05;;;;;;;19.93;14.63;;;;;;;0.34;100.00;94517.00;4912114;28;101988;-61
2022/12/14 11:04:36;;;;;;;17.13;14.37;;;;;;;0.45;100.00;94519.53;4894306;28;105171;-61
2022/12/14 11:07:05;;;;;;;21.07;15.17;;;;;;;0.47;100.00;94519.31;4892623;28;105357;-61
2022/12/14 11:09:34;;;;;;;18.57;15.00;;;;;;;0.35;100.00;94513.34;4894318;28;101974;-61
2022/12/14 11:12:06;;;;;;;19.50;14.43;;;;;;;0.29;100.00;94530.75;4894236;28;104885;-61
2022/12/14 11:14:53;;;;;;;18.10;14.00;;;;;;;0.08;100.00;94527.97;4913991;28;102668;-61
2022/12/14 11:17:31;;;;;;;18.13;13.40;;;;;;;0.10;100.00;94521.50;4911543;28;102317;-61
2022/12/14 11:20:18;;;;;;;22.17;15.60;;;;;;;0.26;100.00;94512.13;4893499;28;105392;-61
2022/12/14 11:22:47;;;;;;;20.87;15.17;;;;;;;0.26;100.00;94525.19;4892278;28;102250;-61
2022/12/14 11:25:31;;;;;;;18.97;14.27;;;;;;;0.07;100.00;94518.56;4895197;28;102383;-61
2022/12/14 11:27:59;;;;;;;23.33;16.30;;;;;;;0.02;100.00;94531.50;4904562;28;105421;-61
2022/12/14 11:30:27;;;;;;;25.23;16.27;;;;;;;0.14;100.00;94532.28;4930364;28;101840;-61